Weather reports worldwide

Advertisment
Cambridge (NIAB), United Kingdom (99123): temperature & dewpoint: 04.07.2020 03:00:00 - 10.07.2020 03:00:00 (BST)Cambridge (NIAB), United Kingdom (99123): precipitation: 04.07.2020 03:00:00 - 10.07.2020 03:00:00 (BST)
Date & Time tt [°C] td [°C] rr [mm]
10.07.2020 03:00:00 12,2 12,0 0,4
10.07.2020 02:00:00 12,9 12,7 0,0
10.07.2020 01:00:00 13,0 12,8 0,0
10.07.2020 00:00:00 13,1 12,9 0,2
09.07.2020 23:00:00 13,6 13,4 0,2
09.07.2020 22:00:00 14,1 13,8 0,4
09.07.2020 21:00:00 14,6 14,4 0,8
09.07.2020 20:00:00 15,1 14,9 0,2
09.07.2020 19:00:00 15,0 14,6 0,2
09.07.2020 18:00:00 15,4 15,1 0,4
09.07.2020 17:00:00 15,7 15,0 0,2
09.07.2020 16:00:00 15,9 15,5 1,6
09.07.2020 15:00:00 16,6 16,2 1,4
09.07.2020 14:00:00 17,7 15,8 0,0
09.07.2020 13:00:00 18,4 15,0 0,0
09.07.2020 12:00:00 18,2 15,6 0,0
09.07.2020 11:00:00 17,8 15,1 0,0
09.07.2020 10:00:00 17,1 14,9 0,0
09.07.2020 09:00:00 16,3 14,4 0,0
09.07.2020 08:00:00 16,4 14,6 0,0
09.07.2020 07:00:00 16,1 14,8 0,0
09.07.2020 06:00:00 16,0 15,1 0,0
09.07.2020 05:00:00 15,9 15,5 0,2
09.07.2020 04:00:00 15,8 15,4 0,8
09.07.2020 03:00:00 15,9 15,4 0,2
09.07.2020 02:00:00 15,8 15,4 0,6
09.07.2020 01:00:00 15,6 15,1 0,2
09.07.2020 00:00:00 15,7 15,2 0,0
08.07.2020 23:00:00 15,6 15,4 0,2
08.07.2020 22:00:00 15,8 15,7 0,6
08.07.2020 21:00:00 15,6 15,5 0,4
08.07.2020 20:00:00 15,4 15,1 2,4
08.07.2020 19:00:00 15,9 15,4 1,0
08.07.2020 18:00:00 16,4 15,5 0,0
08.07.2020 17:00:00 17,1 15,9 0,4
08.07.2020 16:00:00 16,9 15,4 0,0
08.07.2020 15:00:00 16,5 15,9 0,8
08.07.2020 14:00:00 16,0 15,4 1,4
08.07.2020 13:00:00 16,2 14,5 0,0
08.07.2020 12:00:00 18,0 14,8 0,0
08.07.2020 11:00:00 17,7 14,8 0,0
08.07.2020 10:00:00 16,9 15,5 0,0
08.07.2020 09:00:00 15,9 14,9 0,0
08.07.2020 08:00:00 15,3 14,9 0,2
08.07.2020 07:00:00 14,6 14,4 0,8
08.07.2020 06:00:00 14,2 14,0 0,8
08.07.2020 05:00:00 13,9 13,7 0,2
08.07.2020 04:00:00 13,7 13,5 0,0
08.07.2020 03:00:00 13,4 13,3 1,4
08.07.2020 02:00:00 13,1 13,0 0,8
08.07.2020 01:00:00 12,8 12,7 1,0
08.07.2020 00:00:00 12,5 12,4 1,2
07.07.2020 23:00:00 12,5 12,0 1,2
07.07.2020 22:00:00 12,9 11,1 0,2
07.07.2020 21:00:00 14,2 9,8 0,0
07.07.2020 20:00:00 14,8 10,6 0,0
07.07.2020 19:00:00 15,1 9,1 0,0
07.07.2020 18:00:00 14,9 10,0 0,0
07.07.2020 17:00:00 15,4 9,0 0,0
07.07.2020 16:00:00 15,5 11,7 0,4
07.07.2020 15:00:00 14,8 11,5 0,0
07.07.2020 14:00:00 17,6 8,3 0,0
07.07.2020 13:00:00 18,3 7,4 0,0
07.07.2020 12:00:00 19,1 9,7 0,0
07.07.2020 11:00:00 18,1 9,3 0,0
07.07.2020 10:00:00 17,0 9,4 0,0
07.07.2020 09:00:00 16,4 9,8 0,0
07.07.2020 08:00:00 14,0 9,3 0,0
07.07.2020 07:00:00 12,5 8,7 0,0
07.07.2020 06:00:00 11,5 8,5 0,0
07.07.2020 05:00:00 10,1 8,1 0,0
07.07.2020 04:00:00 9,5 7,0 0,0
07.07.2020 03:00:00 10,2 7,6 0,0
07.07.2020 02:00:00 8,9 6,7 0,0
07.07.2020 01:00:00 8,3 4,9 0,0
07.07.2020 00:00:00 9,9 5,5 0,0
06.07.2020 23:00:00 10,7 5,2 0,0
06.07.2020 22:00:00 13,4 4,9 0,0
06.07.2020 21:00:00 16,0 5,0 0,0
06.07.2020 20:00:00 18,1 5,7 0,0
06.07.2020 19:00:00 19,4 6,9 0,0
06.07.2020 18:00:00 19,3 6,8 0,0
06.07.2020 17:00:00 19,9 7,3 0,0
06.07.2020 16:00:00 19,1 7,4 0,0
06.07.2020 15:00:00 19,6 8,7 0,0
06.07.2020 14:00:00 18,6 9,0 0,0
06.07.2020 13:00:00 17,2 8,7 0,0
06.07.2020 12:00:00 16,2 7,7 0,0
06.07.2020 11:00:00 15,9 7,3 0,0
06.07.2020 10:00:00 15,1 7,1 0,0
06.07.2020 09:00:00 14,9 7,2 0,0
06.07.2020 08:00:00 14,4 7,9 0,0
06.07.2020 07:00:00 13,0 8,3 0,0
06.07.2020 06:00:00 11,6 8,3 0,0
06.07.2020 05:00:00 11,6 8,0 0,0
06.07.2020 04:00:00 12,0 7,9 0,0
06.07.2020 03:00:00 11,8 7,7 0,0
06.07.2020 02:00:00 12,6 7,9 0,0
06.07.2020 01:00:00 12,9 8,0 0,0
06.07.2020 00:00:00 13,4 8,1 0,0
05.07.2020 23:00:00 14,1 8,1 0,0
05.07.2020 22:00:00 14,8 7,8 0,0
05.07.2020 21:00:00 15,8 7,6 0,0
05.07.2020 20:00:00 17,3 6,8 0,0
05.07.2020 19:00:00 17,7 7,2 0,0
05.07.2020 18:00:00 19,4 5,3 0,0
05.07.2020 17:00:00 19,9 6,8 0,0
05.07.2020 16:00:00 20,0 5,7 0,0
05.07.2020 15:00:00 20,7 6,4 0,0
05.07.2020 14:00:00 20,1 6,0 0,0
05.07.2020 13:00:00 20,2 5,4 0,0
05.07.2020 12:00:00 20,6 7,9 0,0
05.07.2020 11:00:00 20,7 8,2 0,0
05.07.2020 10:00:00 19,8 8,8 0,0
05.07.2020 09:00:00 18,5 11,6 0,0
05.07.2020 08:00:00 18,4 13,3 0,0
05.07.2020 07:00:00 18,0 13,8 0,0
05.07.2020 06:00:00 17,1 14,9 0,0
05.07.2020 05:00:00 18,1 14,5 0,0
05.07.2020 04:00:00 18,3 14,9 0,0
05.07.2020 03:00:00 18,1 14,9 0,0
05.07.2020 02:00:00 18,2 14,7 0,0
05.07.2020 01:00:00 18,3 14,5 0,0
05.07.2020 00:00:00 18,2 14,5 0,0
04.07.2020 23:00:00 18,3 14,2 0,0
04.07.2020 22:00:00 18,4 14,3 0,0
04.07.2020 21:00:00 19,0 14,3 0,0
04.07.2020 20:00:00 19,4 15,5 0,0
04.07.2020 19:00:00 19,8 15,6 0,0
04.07.2020 18:00:00 19,6 15,6 0,0
04.07.2020 17:00:00 19,4 15,7 0,2
04.07.2020 16:00:00 18,9 15,8 0,0
04.07.2020 15:00:00 20,3 15,2 0,0
04.07.2020 14:00:00 20,3 15,5 0,0
04.07.2020 13:00:00 19,5 15,1 0,0
04.07.2020 12:00:00 19,5 14,9 0,0
04.07.2020 11:00:00 18,3 15,1 0,0
04.07.2020 10:00:00 18,1 15,2 0,0
04.07.2020 09:00:00 18,1 14,5 0,0
04.07.2020 08:00:00 18,0 14,8 0,0
04.07.2020 07:00:00 16,7 14,3 0,0
04.07.2020 06:00:00 16,2 14,0 0,0
04.07.2020 05:00:00 16,0 13,8 0,0
04.07.2020 04:00:00 15,7 13,8 0,0
04.07.2020 03:00:00 15,2 13,7 0,0

tt = temperature
td = dewpoint
rr = precipitation

Next stations